sensor_id;sensor_type;location;lat;lon;timestamp;temperature;humidity
69082;DHT22;69029;51.986;5.760;2023-06-14T00:00:47;20.60;34.80
69082;DHT22;69029;51.986;5.760;2023-06-14T00:03:14;20.60;35.00
69082;DHT22;69029;51.986;5.760;2023-06-14T00:05:43;20.60;34.60
69082;DHT22;69029;51.986;5.760;2023-06-14T00:08:09;20.50;35.30
69082;DHT22;69029;51.986;5.760;2023-06-14T00:10:38;20.40;36.00
69082;DHT22;69029;51.986;5.760;2023-06-14T00:13:06;20.40;36.20
69082;DHT22;69029;51.986;5.760;2023-06-14T00:15:35;20.40;35.70
69082;DHT22;69029;51.986;5.760;2023-06-14T00:18:01;20.30;35.90
69082;DHT22;69029;51.986;5.760;2023-06-14T00:20:28;20.30;36.20
69082;DHT22;69029;51.986;5.760;2023-06-14T00:22:56;20.30;36.80
69082;DHT22;69029;51.986;5.760;2023-06-14T00:25:25;20.20;37.20
69082;DHT22;69029;51.986;5.760;2023-06-14T00:27:51;20.10;37.60
69082;DHT22;69029;51.986;5.760;2023-06-14T00:30:17;20.20;37.90
69082;DHT22;69029;51.986;5.760;2023-06-14T00:32:44;20.10;37.60
69082;DHT22;69029;51.986;5.760;2023-06-14T00:35:10;20.10;37.30
69082;DHT22;69029;51.986;5.760;2023-06-14T00:37:35;20.00;37.70
69082;DHT22;69029;51.986;5.760;2023-06-14T00:40:01;20.00;37.20
69082;DHT22;69029;51.986;5.760;2023-06-14T00:42:28;20.00;37.30
69082;DHT22;69029;51.986;5.760;2023-06-14T00:44:54;20.00;37.60
69082;DHT22;69029;51.986;5.760;2023-06-14T00:47:20;19.90;37.90
69082;DHT22;69029;51.986;5.760;2023-06-14T00:49:47;19.80;38.80
69082;DHT22;69029;51.986;5.760;2023-06-14T00:52:16;19.80;38.00
69082;DHT22;69029;51.986;5.760;2023-06-14T00:54:43;19.80;38.70
69082;DHT22;69029;51.986;5.760;2023-06-14T00:57:10;19.80;38.60
69082;DHT22;69029;51.986;5.760;2023-06-14T00:59:46;19.70;38.10
69082;DHT22;69029;51.986;5.760;2023-06-14T01:02:12;19.70;38.60
69082;DHT22;69029;51.986;5.760;2023-06-14T01:04:40;19.60;38.00
69082;DHT22;69029;51.986;5.760;2023-06-14T01:15:21;19.40;40.10
69082;DHT22;69029;51.986;5.760;2023-06-14T01:17:49;19.30;39.90
69082;DHT22;69029;51.986;5.760;2023-06-14T01:20:18;19.20;36.90
69082;DHT22;69029;51.986;5.760;2023-06-14T01:22:52;19.20;39.70
69082;DHT22;69029;51.986;5.760;2023-06-14T01:25:21;19.10;40.00
69082;DHT22;69029;51.986;5.760;2023-06-14T01:28:00;19.10;40.20
69082;DHT22;69029;51.986;5.760;2023-06-14T01:30:29;19.10;38.80
69082;DHT22;69029;51.986;5.760;2023-06-14T01:32:57;19.00;38.80
69082;DHT22;69029;51.986;5.760;2023-06-14T01:35:23;18.90;39.60
69082;DHT22;69029;51.986;5.760;2023-06-14T01:37:49;18.90;40.60
69082;DHT22;69029;51.986;5.760;2023-06-14T01:40:17;18.90;40.80
69082;DHT22;69029;51.986;5.760;2023-06-14T01:42:44;18.80;41.10
69082;DHT22;69029;51.986;5.760;2023-06-14T01:45:11;18.80;39.80
69082;DHT22;69029;51.986;5.760;2023-06-14T01:47:37;18.80;41.70
69082;DHT22;69029;51.986;5.760;2023-06-14T01:50:03;18.70;41.30
69082;DHT22;69029;51.986;5.760;2023-06-14T01:52:29;18.70;41.80
69082;DHT22;69029;51.986;5.760;2023-06-14T01:54:55;18.60;42.10
69082;DHT22;69029;51.986;5.760;2023-06-14T01:57:22;18.60;40.30
69082;DHT22;69029;51.986;5.760;2023-06-14T01:59:48;18.50;40.10
69082;DHT22;69029;51.986;5.760;2023-06-14T02:02:14;18.50;41.80
69082;DHT22;69029;51.986;5.760;2023-06-14T02:04:41;18.50;42.40
69082;DHT22;69029;51.986;5.760;2023-06-14T02:07:07;18.40;42.10
69082;DHT22;69029;51.986;5.760;2023-06-14T02:09:33;18.40;41.40
69082;DHT22;69029;51.986;5.760;2023-06-14T02:11:59;18.40;42.90
69082;DHT22;69029;51.986;5.760;2023-06-14T02:14:25;18.30;42.40
69082;DHT22;69029;51.986;5.760;2023-06-14T02:16:51;18.30;41.80
69082;DHT22;69029;51.986;5.760;2023-06-14T02:19:19;18.30;43.00
69082;DHT22;69029;51.986;5.760;2023-06-14T02:21:45;18.20;43.40
69082;DHT22;69029;51.986;5.760;2023-06-14T02:24:11;18.10;45.00
69082;DHT22;69029;51.986;5.760;2023-06-14T02:26:36;18.10;42.90
69082;DHT22;69029;51.986;5.760;2023-06-14T02:29:07;18.10;43.50
69082;DHT22;69029;51.986;5.760;2023-06-14T02:31:35;18.00;43.10
69082;DHT22;69029;51.986;5.760;2023-06-14T02:34:01;17.90;43.50
69082;DHT22;69029;51.986;5.760;2023-06-14T02:36:30;17.90;42.40
69082;DHT22;69029;51.986;5.760;2023-06-14T02:38:56;17.90;42.70
69082;DHT22;69029;51.986;5.760;2023-06-14T02:41:23;17.90;44.00
69082;DHT22;69029;51.986;5.760;2023-06-14T02:43:49;17.80;43.50
69082;DHT22;69029;51.986;5.760;2023-06-14T02:46:14;17.80;41.70
69082;DHT22;69029;51.986;5.760;2023-06-14T02:48:40;17.80;43.00
69082;DHT22;69029;51.986;5.760;2023-06-14T02:51:06;17.70;42.50
69082;DHT22;69029;51.986;5.760;2023-06-14T02:53:33;17.70;44.10
69082;DHT22;69029;51.986;5.760;2023-06-14T02:55:59;17.70;43.10
69082;DHT22;69029;51.986;5.760;2023-06-14T02:58:24;17.60;44.60
69082;DHT22;69029;51.986;5.760;2023-06-14T03:00:50;17.50;42.60
69082;DHT22;69029;51.986;5.760;2023-06-14T03:03:18;17.60;44.50
69082;DHT22;69029;51.986;5.760;2023-06-14T03:05:47;17.50;45.50
69082;DHT22;69029;51.986;5.760;2023-06-14T03:08:17;17.50;44.10
69082;DHT22;69029;51.986;5.760;2023-06-14T03:10:47;17.40;45.50
69082;DHT22;69029;51.986;5.760;2023-06-14T03:13:14;17.40;44.30
69082;DHT22;69029;51.986;5.760;2023-06-14T03:15:41;17.30;44.90
69082;DHT22;69029;51.986;5.760;2023-06-14T03:18:10;17.30;46.20
69082;DHT22;69029;51.986;5.760;2023-06-14T03:20:37;17.20;45.80
69082;DHT22;69029;51.986;5.760;2023-06-14T03:23:04;17.20;45.00
69082;DHT22;69029;51.986;5.760;2023-06-14T03:25:31;17.20;46.10
69082;DHT22;69029;51.986;5.760;2023-06-14T03:27:58;17.10;44.70
69082;DHT22;69029;51.986;5.760;2023-06-14T03:30:24;17.10;47.90
69082;DHT22;69029;51.986;5.760;2023-06-14T03:32:49;17.10;45.30
69082;DHT22;69029;51.986;5.760;2023-06-14T03:35:18;17.00;46.20
69082;DHT22;69029;51.986;5.760;2023-06-14T03:37:45;17.00;48.00
69082;DHT22;69029;51.986;5.760;2023-06-14T03:40:12;17.00;47.60
69082;DHT22;69029;51.986;5.760;2023-06-14T03:42:37;16.90;48.60
69082;DHT22;69029;51.986;5.760;2023-06-14T03:45:04;16.90;47.20
69082;DHT22;69029;51.986;5.760;2023-06-14T03:47:29;16.90;47.70
69082;DHT22;69029;51.986;5.760;2023-06-14T03:49:55;16.90;45.70
69082;DHT22;69029;51.986;5.760;2023-06-14T03:52:20;16.90;47.50
69082;DHT22;69029;51.986;5.760;2023-06-14T03:54:47;16.90;46.10
69082;DHT22;69029;51.986;5.760;2023-06-14T03:57:13;16.90;50.10
69082;DHT22;69029;51.986;5.760;2023-06-14T03:59:38;16.80;50.40
69082;DHT22;69029;51.986;5.760;2023-06-14T04:02:04;16.80;49.20
69082;DHT22;69029;51.986;5.760;2023-06-14T04:04:30;16.80;50.00
69082;DHT22;69029;51.986;5.760;2023-06-14T04:06:57;16.90;49.40
69082;DHT22;69029;51.986;5.760;2023-06-14T04:09:24;16.90;49.20
69082;DHT22;69029;51.986;5.760;2023-06-14T04:11:51;16.90;49.70
69082;DHT22;69029;51.986;5.760;2023-06-14T04:14:21;16.90;51.10
69082;DHT22;69029;51.986;5.760;2023-06-14T04:16:47;16.90;48.60
69082;DHT22;69029;51.986;5.760;2023-06-14T04:19:14;16.90;49.90
69082;DHT22;69029;51.986;5.760;2023-06-14T04:21:39;16.90;49.10
69082;DHT22;69029;51.986;5.760;2023-06-14T04:24:05;16.90;49.90
69082;DHT22;69029;51.986;5.760;2023-06-14T04:26:32;17.00;47.80
69082;DHT22;69029;51.986;5.760;2023-06-14T04:28:59;17.00;49.80
69082;DHT22;69029;51.986;5.760;2023-06-14T04:31:31;17.10;49.00
69082;DHT22;69029;51.986;5.760;2023-06-14T04:34:03;17.10;48.50
69082;DHT22;69029;51.986;5.760;2023-06-14T04:36:32;17.10;50.60
69082;DHT22;69029;51.986;5.760;2023-06-14T04:39:00;17.20;50.60
69082;DHT22;69029;51.986;5.760;2023-06-14T04:41:26;17.20;49.60
69082;DHT22;69029;51.986;5.760;2023-06-14T04:43:59;17.20;52.10
69082;DHT22;69029;51.986;5.760;2023-06-14T04:46:27;17.20;51.50
69082;DHT22;69029;51.986;5.760;2023-06-14T04:48:54;17.30;50.70
69082;DHT22;69029;51.986;5.760;2023-06-14T04:51:19;17.30;51.20
69082;DHT22;69029;51.986;5.760;2023-06-14T04:53:47;17.30;52.30
69082;DHT22;69029;51.986;5.760;2023-06-14T04:56:15;17.40;48.90
69082;DHT22;69029;51.986;5.760;2023-06-14T04:58:42;17.40;50.00
69082;DHT22;69029;51.986;5.760;2023-06-14T05:01:09;17.40;52.00
69082;DHT22;69029;51.986;5.760;2023-06-14T05:03:34;17.50;49.70
69082;DHT22;69029;51.986;5.760;2023-06-14T05:06:00;17.50;50.80
69082;DHT22;69029;51.986;5.760;2023-06-14T05:08:26;17.50;51.30
69082;DHT22;69029;51.986;5.760;2023-06-14T05:10:52;17.50;51.00
69082;DHT22;69029;51.986;5.760;2023-06-14T05:13:18;17.70;50.90
69082;DHT22;69029;51.986;5.760;2023-06-14T05:15:44;17.70;51.90
69082;DHT22;69029;51.986;5.760;2023-06-14T05:18:09;17.80;53.10
69082;DHT22;69029;51.986;5.760;2023-06-14T05:20:35;17.70;52.10
69082;DHT22;69029;51.986;5.760;2023-06-14T05:23:02;17.80;49.70
69082;DHT22;69029;51.986;5.760;2023-06-14T05:25:28;17.80;52.40
69082;DHT22;69029;51.986;5.760;2023-06-14T05:27:54;17.90;50.00
69082;DHT22;69029;51.986;5.760;2023-06-14T05:30:20;18.00;52.00
69082;DHT22;69029;51.986;5.760;2023-06-14T05:32:46;18.10;51.60
69082;DHT22;69029;51.986;5.760;2023-06-14T05:35:11;18.10;51.80
69082;DHT22;69029;51.986;5.760;2023-06-14T05:37:37;18.20;52.40
69082;DHT22;69029;51.986;5.760;2023-06-14T05:40:04;18.20;51.50
69082;DHT22;69029;51.986;5.760;2023-06-14T05:42:34;18.30;52.20
69082;DHT22;69029;51.986;5.760;2023-06-14T05:45:00;18.30;49.70
69082;DHT22;69029;51.986;5.760;2023-06-14T05:47:26;18.50;50.20
69082;DHT22;69029;51.986;5.760;2023-06-14T05:49:53;18.60;51.00
69082;DHT22;69029;51.986;5.760;2023-06-14T05:52:18;18.60;50.60
69082;DHT22;69029;51.986;5.760;2023-06-14T05:54:44;18.70;50.80
69082;DHT22;69029;51.986;5.760;2023-06-14T05:57:10;18.70;49.40
69082;DHT22;69029;51.986;5.760;2023-06-14T05:59:36;18.80;49.80
69082;DHT22;69029;51.986;5.760;2023-06-14T06:02:01;18.90;48.80
69082;DHT22;69029;51.986;5.760;2023-06-14T06:04:27;19.00;48.50
69082;DHT22;69029;51.986;5.760;2023-06-14T06:06:52;19.00;49.50
69082;DHT22;69029;51.986;5.760;2023-06-14T06:09:18;19.10;49.10
69082;DHT22;69029;51.986;5.760;2023-06-14T06:11:44;19.10;48.00
69082;DHT22;69029;51.986;5.760;2023-06-14T06:14:10;19.20;49.30
69082;DHT22;69029;51.986;5.760;2023-06-14T06:16:35;19.30;48.90
69082;DHT22;69029;51.986;5.760;2023-06-14T06:19:01;19.40;49.20
69082;DHT22;69029;51.986;5.760;2023-06-14T06:21:26;19.50;47.30
69082;DHT22;69029;51.986;5.760;2023-06-14T06:23:52;19.50;48.40
69082;DHT22;69029;51.986;5.760;2023-06-14T06:26:17;19.70;48.20
69082;DHT22;69029;51.986;5.760;2023-06-14T06:28:43;19.70;47.50
69082;DHT22;69029;51.986;5.760;2023-06-14T06:31:08;19.70;47.50
69082;DHT22;69029;51.986;5.760;2023-06-14T06:33:36;19.80;48.60
69082;DHT22;69029;51.986;5.760;2023-06-14T06:36:02;19.90;47.90
69082;DHT22;69029;51.986;5.760;2023-06-14T06:38:27;20.00;46.90
69082;DHT22;69029;51.986;5.760;2023-06-14T06:40:53;20.00;48.00
69082;DHT22;69029;51.986;5.760;2023-06-14T06:43:19;20.10;47.70
69082;DHT22;69029;51.986;5.760;2023-06-14T06:45:45;20.20;48.00
69082;DHT22;69029;51.986;5.760;2023-06-14T06:48:11;20.30;46.80
69082;DHT22;69029;51.986;5.760;2023-06-14T06:50:36;20.30;45.80
69082;DHT22;69029;51.986;5.760;2023-06-14T06:53:02;20.40;46.50
69082;DHT22;69029;51.986;5.760;2023-06-14T06:55:28;20.50;46.10
69082;DHT22;69029;51.986;5.760;2023-06-14T06:57:53;20.60;45.80
69082;DHT22;69029;51.986;5.760;2023-06-14T07:00:20;20.60;45.60
69082;DHT22;69029;51.986;5.760;2023-06-14T07:02:46;20.60;45.10
69082;DHT22;69029;51.986;5.760;2023-06-14T07:05:12;20.60;45.90
69082;DHT22;69029;51.986;5.760;2023-06-14T07:07:38;20.80;46.20
69082;DHT22;69029;51.986;5.760;2023-06-14T07:10:04;20.80;46.10
69082;DHT22;69029;51.986;5.760;2023-06-14T07:12:33;20.90;46.40
69082;DHT22;69029;51.986;5.760;2023-06-14T07:14:59;21.00;45.30
69082;DHT22;69029;51.986;5.760;2023-06-14T07:17:25;21.00;44.90
69082;DHT22;69029;51.986;5.760;2023-06-14T07:19:50;21.10;45.00
69082;DHT22;69029;51.986;5.760;2023-06-14T07:22:16;21.20;44.40
69082;DHT22;69029;51.986;5.760;2023-06-14T07:24:43;21.20;44.90
69082;DHT22;69029;51.986;5.760;2023-06-14T07:27:08;21.30;44.60
69082;DHT22;69029;51.986;5.760;2023-06-14T07:29:34;21.40;44.20
69082;DHT22;69029;51.986;5.760;2023-06-14T07:32:00;21.40;43.90
69082;DHT22;69029;51.986;5.760;2023-06-14T07:34:25;21.50;42.50
69082;DHT22;69029;51.986;5.760;2023-06-14T07:36:51;21.50;43.20
69082;DHT22;69029;51.986;5.760;2023-06-14T07:39:17;21.50;43.20
69082;DHT22;69029;51.986;5.760;2023-06-14T07:41:42;21.50;43.60
69082;DHT22;69029;51.986;5.760;2023-06-14T07:44:08;21.50;42.70
69082;DHT22;69029;51.986;5.760;2023-06-14T07:46:34;21.60;43.40
69082;DHT22;69029;51.986;5.760;2023-06-14T07:49:00;21.70;43.30
69082;DHT22;69029;51.986;5.760;2023-06-14T07:51:26;21.70;44.00
69082;DHT22;69029;51.986;5.760;2023-06-14T07:53:51;21.80;43.30
69082;DHT22;69029;51.986;5.760;2023-06-14T07:56:17;21.90;42.40
69082;DHT22;69029;51.986;5.760;2023-06-14T07:58:42;22.00;41.90
69082;DHT22;69029;51.986;5.760;2023-06-14T08:01:09;22.00;40.80
69082;DHT22;69029;51.986;5.760;2023-06-14T08:03:35;22.10;42.90
69082;DHT22;69029;51.986;5.760;2023-06-14T08:06:01;22.20;42.50
69082;DHT22;69029;51.986;5.760;2023-06-14T08:08:27;22.30;41.50
69082;DHT22;69029;51.986;5.760;2023-06-14T08:10:52;22.30;41.60
69082;DHT22;69029;51.986;5.760;2023-06-14T08:13:18;22.40;41.00
69082;DHT22;69029;51.986;5.760;2023-06-14T08:15:43;22.40;41.80
69082;DHT22;69029;51.986;5.760;2023-06-14T08:18:09;22.50;40.70
69082;DHT22;69029;51.986;5.760;2023-06-14T08:20:35;22.60;40.80
69082;DHT22;69029;51.986;5.760;2023-06-14T08:23:02;22.60;40.50
69082;DHT22;69029;51.986;5.760;2023-06-14T08:25:30;22.70;40.60
69082;DHT22;69029;51.986;5.760;2023-06-14T08:27:56;22.70;39.90
69082;DHT22;69029;51.986;5.760;2023-06-14T08:30:22;22.80;40.30
69082;DHT22;69029;51.986;5.760;2023-06-14T08:32:48;22.80;39.50
69082;DHT22;69029;51.986;5.760;2023-06-14T08:35:14;22.80;39.00
69082;DHT22;69029;51.986;5.760;2023-06-14T08:37:42;22.90;39.20
69082;DHT22;69029;51.986;5.760;2023-06-14T08:40:18;23.00;38.40
69082;DHT22;69029;51.986;5.760;2023-06-14T08:42:47;23.00;38.00
69082;DHT22;69029;51.986;5.760;2023-06-14T08:45:12;23.00;38.10
69082;DHT22;69029;51.986;5.760;2023-06-14T08:47:38;23.10;37.80
69082;DHT22;69029;51.986;5.760;2023-06-14T08:50:05;23.10;38.10
69082;DHT22;69029;51.986;5.760;2023-06-14T08:52:35;23.10;37.30
69082;DHT22;69029;51.986;5.760;2023-06-14T08:55:06;23.20;37.30
69082;DHT22;69029;51.986;5.760;2023-06-14T08:57:33;23.30;37.80
69082;DHT22;69029;51.986;5.760;2023-06-14T09:00:03;23.30;37.30
69082;DHT22;69029;51.986;5.760;2023-06-14T09:02:37;23.30;37.50
69082;DHT22;69029;51.986;5.760;2023-06-14T09:05:03;23.40;37.40
69082;DHT22;69029;51.986;5.760;2023-06-14T09:07:28;23.40;35.80
69082;DHT22;69029;51.986;5.760;2023-06-14T09:10:12;23.40;35.00
69082;DHT22;69029;51.986;5.760;2023-06-14T09:12:38;23.40;35.50
69082;DHT22;69029;51.986;5.760;2023-06-14T09:15:08;23.50;35.80
69082;DHT22;69029;51.986;5.760;2023-06-14T09:17:38;23.50;35.70
69082;DHT22;69029;51.986;5.760;2023-06-14T09:20:05;23.50;36.00
69082;DHT22;69029;51.986;5.760;2023-06-14T09:22:44;23.60;36.20
69082;DHT22;69029;51.986;5.760;2023-06-14T09:25:10;23.60;36.30
69082;DHT22;69029;51.986;5.760;2023-06-14T09:27:37;23.70;36.10
69082;DHT22;69029;51.986;5.760;2023-06-14T09:30:06;23.80;36.20
69082;DHT22;69029;51.986;5.760;2023-06-14T09:32:39;23.80;35.90
69082;DHT22;69029;51.986;5.760;2023-06-14T09:35:08;23.90;36.50
69082;DHT22;69029;51.986;5.760;2023-06-14T09:37:34;24.00;35.60
69082;DHT22;69029;51.986;5.760;2023-06-14T09:40:01;23.90;35.60
69082;DHT22;69029;51.986;5.760;2023-06-14T09:42:26;24.00;35.50
69082;DHT22;69029;51.986;5.760;2023-06-14T09:44:54;24.00;35.50
69082;DHT22;69029;51.986;5.760;2023-06-14T09:47:21;24.10;36.00
69082;DHT22;69029;51.986;5.760;2023-06-14T09:49:47;24.10;36.40
69082;DHT22;69029;51.986;5.760;2023-06-14T09:52:20;24.20;36.00
69082;DHT22;69029;51.986;5.760;2023-06-14T09:54:48;24.30;35.20
69082;DHT22;69029;51.986;5.760;2023-06-14T09:57:16;24.40;35.10
69082;DHT22;69029;51.986;5.760;2023-06-14T09:59:44;24.40;34.60
69082;DHT22;69029;51.986;5.760;2023-06-14T10:02:25;24.50;35.40
69082;DHT22;69029;51.986;5.760;2023-06-14T10:07:30;24.70;35.00
69082;DHT22;69029;51.986;5.760;2023-06-14T10:09:57;24.70;34.30
69082;DHT22;69029;51.986;5.760;2023-06-14T10:12:23;24.70;34.90
69082;DHT22;69029;51.986;5.760;2023-06-14T10:14:50;24.80;34.60
69082;DHT22;69029;51.986;5.760;2023-06-14T10:17:22;24.90;35.30
69082;DHT22;69029;51.986;5.760;2023-06-14T10:19:55;25.00;34.40
69082;DHT22;69029;51.986;5.760;2023-06-14T10:22:35;25.00;36.40
69082;DHT22;69029;51.986;5.760;2023-06-14T10:25:07;25.20;35.60
69082;DHT22;69029;51.986;5.760;2023-06-14T10:27:37;25.30;36.30
69082;DHT22;69029;51.986;5.760;2023-06-14T10:30:04;25.40;36.10
69082;DHT22;69029;51.986;5.760;2023-06-14T10:32:31;25.50;35.80
69082;DHT22;69029;51.986;5.760;2023-06-14T10:35:00;25.70;35.60
69082;DHT22;69029;51.986;5.760;2023-06-14T10:37:27;25.90;35.00
69082;DHT22;69029;51.986;5.760;2023-06-14T10:39:53;26.20;34.60
69082;DHT22;69029;51.986;5.760;2023-06-14T10:42:19;26.30;33.00
69082;DHT22;69029;51.986;5.760;2023-06-14T10:44:55;26.50;34.20
69082;DHT22;69029;51.986;5.760;2023-06-14T10:47:34;26.90;32.00
69082;DHT22;69029;51.986;5.760;2023-06-14T10:50:08;27.20;32.60
69082;DHT22;69029;51.986;5.760;2023-06-14T10:52:38;27.50;32.80
69082;DHT22;69029;51.986;5.760;2023-06-14T10:55:08;27.80;31.30
69082;DHT22;69029;51.986;5.760;2023-06-14T10:57:51;28.30;31.70
69082;DHT22;69029;51.986;5.760;2023-06-14T11:00:19;28.60;31.00
69082;DHT22;69029;51.986;5.760;2023-06-14T11:05:53;29.10;29.70
69082;DHT22;69029;51.986;5.760;2023-06-14T11:08:27;29.40;30.50
69082;DHT22;69029;51.986;5.760;2023-06-14T11:10:59;29.50;29.00
69082;DHT22;69029;51.986;5.760;2023-06-14T11:13:26;29.70;29.00
69082;DHT22;69029;51.986;5.760;2023-06-14T11:15:52;30.00;30.60
69082;DHT22;69029;51.986;5.760;2023-06-14T11:18:19;30.40;30.80
69082;DHT22;69029;51.986;5.760;2023-06-14T11:20:49;31.10;29.10
69082;DHT22;69029;51.986;5.760;2023-06-14T11:23:15;31.60;28.90
69082;DHT22;69029;51.986;5.760;2023-06-14T11:25:41;31.90;29.00
69082;DHT22;69029;51.986;5.760;2023-06-14T11:28:07;32.40;28.40
69082;DHT22;69029;51.986;5.760;2023-06-14T11:30:32;32.70;28.70
69082;DHT22;69029;51.986;5.760;2023-06-14T11:32:58;33.10;28.00
69082;DHT22;69029;51.986;5.760;2023-06-14T11:35:24;33.50;28.80
69082;DHT22;69029;51.986;5.760;2023-06-14T11:37:55;33.90;28.30
69082;DHT22;69029;51.986;5.760;2023-06-14T11:40:25;34.30;28.70
69082;DHT22;69029;51.986;5.760;2023-06-14T11:43:01;34.80;27.60
69082;DHT22;69029;51.986;5.760;2023-06-14T11:45:27;35.20;27.20
69082;DHT22;69029;51.986;5.760;2023-06-14T11:47:55;35.40;27.80
69082;DHT22;69029;51.986;5.760;2023-06-14T11:50:24;35.60;27.40
69082;DHT22;69029;51.986;5.760;2023-06-14T11:52:57;36.10;26.30
69082;DHT22;69029;51.986;5.760;2023-06-14T11:55:25;36.50;26.10
69082;DHT22;69029;51.986;5.760;2023-06-14T11:57:53;36.90;25.60
69082;DHT22;69029;51.986;5.760;2023-06-14T12:00:25;37.30;26.60
69082;DHT22;69029;51.986;5.760;2023-06-14T12:02:54;37.70;25.90
69082;DHT22;69029;51.986;5.760;2023-06-14T12:05:23;37.90;26.10
69082;DHT22;69029;51.986;5.760;2023-06-14T12:07:49;38.40;25.40
69082;DHT22;69029;51.986;5.760;2023-06-14T12:10:16;38.70;25.70
69082;DHT22;69029;51.986;5.760;2023-06-14T12:12:42;39.00;26.00
69082;DHT22;69029;51.986;5.760;2023-06-14T12:15:09;39.10;25.40
69082;DHT22;69029;51.986;5.760;2023-06-14T12:17:37;39.40;25.10
69082;DHT22;69029;51.986;5.760;2023-06-14T12:22:46;39.60;25.20
69082;DHT22;69029;51.986;5.760;2023-06-14T12:25:33;40.00;25.60
69082;DHT22;69029;51.986;5.760;2023-06-14T12:28:06;40.40;24.20
69082;DHT22;69029;51.986;5.760;2023-06-14T12:30:32;40.80;24.00
69082;DHT22;69029;51.986;5.760;2023-06-14T12:32:58;41.10;23.50
69082;DHT22;69029;51.986;5.760;2023-06-14T12:35:24;41.20;23.10
69082;DHT22;69029;51.986;5.760;2023-06-14T12:37:49;41.10;22.50
69082;DHT22;69029;51.986;5.760;2023-06-14T12:40:15;41.60;23.40
69082;DHT22;69029;51.986;5.760;2023-06-14T12:42:41;41.90;22.90
69082;DHT22;69029;51.986;5.760;2023-06-14T12:45:07;41.90;22.60
69082;DHT22;69029;51.986;5.760;2023-06-14T12:47:33;42.30;22.90
69082;DHT22;69029;51.986;5.760;2023-06-14T12:49:58;42.50;22.00
69082;DHT22;69029;51.986;5.760;2023-06-14T12:52:24;42.80;22.60
69082;DHT22;69029;51.986;5.760;2023-06-14T12:54:50;43.10;21.60
69082;DHT22;69029;51.986;5.760;2023-06-14T12:57:15;43.20;21.90
69082;DHT22;69029;51.986;5.760;2023-06-14T12:59:41;43.20;21.90
69082;DHT22;69029;51.986;5.760;2023-06-14T13:02:17;43.40;21.60
69082;DHT22;69029;51.986;5.760;2023-06-14T13:04:43;43.50;22.20
69082;DHT22;69029;51.986;5.760;2023-06-14T13:07:09;44.10;21.70
69082;DHT22;69029;51.986;5.760;2023-06-14T13:09:36;44.20;21.40
69082;DHT22;69029;51.986;5.760;2023-06-14T13:12:02;44.60;21.50
69082;DHT22;69029;51.986;5.760;2023-06-14T13:14:28;45.00;21.30
69082;DHT22;69029;51.986;5.760;2023-06-14T13:16:53;45.00;21.40
69082;DHT22;69029;51.986;5.760;2023-06-14T13:19:20;45.30;21.50
69082;DHT22;69029;51.986;5.760;2023-06-14T13:21:46;45.30;21.20
69082;DHT22;69029;51.986;5.760;2023-06-14T13:24:11;45.30;20.50
69082;DHT22;69029;51.986;5.760;2023-06-14T13:26:37;45.60;20.70
69082;DHT22;69029;51.986;5.760;2023-06-14T13:29:02;45.60;20.60
69082;DHT22;69029;51.986;5.760;2023-06-14T13:31:29;45.50;20.90
69082;DHT22;69029;51.986;5.760;2023-06-14T13:33:55;45.80;20.50
69082;DHT22;69029;51.986;5.760;2023-06-14T13:36:20;46.00;20.50
69082;DHT22;69029;51.986;5.760;2023-06-14T13:38:46;46.10;20.70
69082;DHT22;69029;51.986;5.760;2023-06-14T13:41:12;45.90;19.90
69082;DHT22;69029;51.986;5.760;2023-06-14T13:43:37;45.90;20.10
69082;DHT22;69029;51.986;5.760;2023-06-14T13:46:03;46.20;19.60
69082;DHT22;69029;51.986;5.760;2023-06-14T13:48:29;46.00;19.20
69082;DHT22;69029;51.986;5.760;2023-06-14T13:50:54;46.10;18.70
69082;DHT22;69029;51.986;5.760;2023-06-14T13:53:20;46.10;19.10
69082;DHT22;69029;51.986;5.760;2023-06-14T13:55:45;46.20;18.60
69082;DHT22;69029;51.986;5.760;2023-06-14T13:58:11;46.20;18.60
69082;DHT22;69029;51.986;5.760;2023-06-14T14:00:37;46.40;19.00
69082;DHT22;69029;51.986;5.760;2023-06-14T14:03:06;46.50;18.90
69082;DHT22;69029;51.986;5.760;2023-06-14T14:05:31;46.40;19.30
69082;DHT22;69029;51.986;5.760;2023-06-14T14:07:57;46.80;18.40
69082;DHT22;69029;51.986;5.760;2023-06-14T14:10:24;46.40;18.90
69082;DHT22;69029;51.986;5.760;2023-06-14T14:12:51;46.30;18.50
69082;DHT22;69029;51.986;5.760;2023-06-14T14:15:17;46.90;18.40
69082;DHT22;69029;51.986;5.760;2023-06-14T14:17:42;46.80;18.50
69082;DHT22;69029;51.986;5.760;2023-06-14T14:20:08;46.90;18.20
69082;DHT22;69029;51.986;5.760;2023-06-14T14:22:34;47.00;18.20
69082;DHT22;69029;51.986;5.760;2023-06-14T14:25:00;46.90;17.20
69082;DHT22;69029;51.986;5.760;2023-06-14T14:27:29;46.90;17.80
69082;DHT22;69029;51.986;5.760;2023-06-14T14:29:55;46.80;17.80
69082;DHT22;69029;51.986;5.760;2023-06-14T14:32:20;47.20;18.30
69082;DHT22;69029;51.986;5.760;2023-06-14T14:34:46;47.50;17.90
69082;DHT22;69029;51.986;5.760;2023-06-14T14:37:12;47.60;17.60
69082;DHT22;69029;51.986;5.760;2023-06-14T14:39:38;47.90;17.50
69082;DHT22;69029;51.986;5.760;2023-06-14T14:42:04;47.60;17.70
69082;DHT22;69029;51.986;5.760;2023-06-14T14:44:30;47.60;17.50
69082;DHT22;69029;51.986;5.760;2023-06-14T14:46:56;47.90;17.70
69082;DHT22;69029;51.986;5.760;2023-06-14T14:49:21;48.30;17.20
69082;DHT22;69029;51.986;5.760;2023-06-14T14:51:47;48.10;17.70
69082;DHT22;69029;51.986;5.760;2023-06-14T14:54:13;48.10;17.30
69082;DHT22;69029;51.986;5.760;2023-06-14T14:56:38;48.30;17.10
69082;DHT22;69029;51.986;5.760;2023-06-14T14:59:04;48.10;17.10
69082;DHT22;69029;51.986;5.760;2023-06-14T15:01:30;47.90;17.00
69082;DHT22;69029;51.986;5.760;2023-06-14T15:03:58;47.90;16.90
69082;DHT22;69029;51.986;5.760;2023-06-14T15:06:35;47.90;17.60
69082;DHT22;69029;51.986;5.760;2023-06-14T15:09:01;48.00;16.70
69082;DHT22;69029;51.986;5.760;2023-06-14T15:11:27;48.10;17.10
69082;DHT22;69029;51.986;5.760;2023-06-14T15:13:53;48.60;16.80
69082;DHT22;69029;51.986;5.760;2023-06-14T15:16:19;48.50;17.00
69082;DHT22;69029;51.986;5.760;2023-06-14T15:18:44;48.60;16.40
69082;DHT22;69029;51.986;5.760;2023-06-14T15:21:11;47.50;17.00
69082;DHT22;69029;51.986;5.760;2023-06-14T15:23:37;47.30;16.70
69082;DHT22;69029;51.986;5.760;2023-06-14T15:26:02;47.40;17.40
69082;DHT22;69029;51.986;5.760;2023-06-14T15:28:28;47.00;17.30
69082;DHT22;69029;51.986;5.760;2023-06-14T15:30:55;46.40;17.10
69082;DHT22;69029;51.986;5.760;2023-06-14T15:33:21;46.60;17.40
69082;DHT22;69029;51.986;5.760;2023-06-14T15:35:46;46.50;16.50
69082;DHT22;69029;51.986;5.760;2023-06-14T15:38:12;46.40;18.20
69082;DHT22;69029;51.986;5.760;2023-06-14T15:40:38;46.60;17.50
69082;DHT22;69029;51.986;5.760;2023-06-14T15:43:03;46.50;17.40
69082;DHT22;69029;51.986;5.760;2023-06-14T15:45:29;46.50;17.00